Time;durP1;ratioP1;P1;durP2;ratioP2;P2;SDS_P1;SDS_P2;PMS_P1;PMS_P2;Temp;Humidity;BMP_temperature;BMP_pressure;BME280_temperature;BME280_humidity;BME280_pressure;Samples;Min_cycle;Max_cycle;Signal;HPM_P1;HPM_P2
2021/05/15 00:04:27;;;;;;;13.50;12.40;;;;;;;8.49;77.35;99314.94;10574990;28;20531;-76
2021/05/15 00:09:28;;;;;;;12.48;11.48;;;;;;;8.70;77.71;99310.69;10575283;28;20031;-75
2021/05/15 00:14:29;;;;;;;11.57;10.60;;;;;;;8.71;77.25;99308.94;10605525;22;20047;-72
2021/05/15 00:19:29;;;;;;;12.85;11.80;;;;;;;8.56;77.89;99303.34;10570556;28;20047;-72
2021/05/15 00:24:30;;;;;;;14.00;12.88;;;;;;;8.51;78.02;99305.28;10590740;28;20031;-72
2021/05/15 00:29:31;;;;;;;13.88;12.57;;;;;;;8.70;77.79;99302.00;10592894;28;20116;-71
2021/05/15 00:34:32;;;;;;;14.73;13.50;;;;;;;8.87;76.45;99296.16;10601123;28;20077;-72
2021/05/15 00:39:35;;;;;;;13.50;12.38;;;;;;;8.96;76.08;99296.66;10599310;28;20035;-72
2021/05/15 00:44:45;;;;;;;14.05;12.68;;;;;;;8.97;76.08;99295.75;10578774;28;20061;-72
2021/05/15 00:49:47;;;;;;;13.27;12.05;;;;;;;8.84;76.79;99307.59;10592491;28;20046;-71
2021/05/15 00:54:51;;;;;;;13.32;12.13;;;;;;;8.74;76.76;99298.34;10590357;28;20106;-71
2021/05/15 00:59:51;;;;;;;14.63;13.43;;;;;;;8.61;77.38;99299.69;10592748;28;20045;-71
2021/05/15 01:04:52;;;;;;;12.82;11.55;;;;;;;8.85;76.78;99288.31;10592200;28;20445;-72
2021/05/15 01:09:53;;;;;;;11.38;10.48;;;;;;;8.82;76.21;99283.22;10590026;28;20038;-71
2021/05/15 01:14:53;;;;;;;12.52;11.20;;;;;;;8.53;76.59;99303.44;10587910;28;20396;-71
2021/05/15 01:19:54;;;;;;;10.00;9.30;;;;;;;8.47;76.90;99284.47;10590954;28;20110;-75
2021/05/15 01:24:54;;;;;;;10.00;9.20;;;;;;;8.31;77.53;99282.34;10589948;28;20024;-71
2021/05/15 01:29:55;;;;;;;8.73;8.13;;;;;;;8.75;76.59;99284.34;10573311;28;20032;-71
2021/05/15 01:34:55;;;;;;;8.70;8.18;;;;;;;8.36;76.64;99292.66;10588796;28;20322;-72
2021/05/15 01:39:56;;;;;;;8.65;8.15;;;;;;;8.43;76.22;99296.81;10570550;28;20027;-71
2021/05/15 01:44:57;;;;;;;9.70;9.10;;;;;;;7.94;77.96;99287.97;10568976;28;20241;-71
2021/05/15 01:49:57;;;;;;;9.40;8.80;;;;;;;7.89;77.95;99295.13;10569498;28;20042;-71
2021/05/15 01:54:58;;;;;;;7.72;7.22;;;;;;;8.37;76.22;99297.03;10588330;28;20555;-71
2021/05/15 01:59:58;;;;;;;9.07;8.48;;;;;;;7.75;78.02;99289.50;10585555;28;20027;-71
2021/05/15 02:04:59;;;;;;;8.32;7.82;;;;;;;7.86;77.57;99281.28;10585004;28;20038;-71
2021/05/15 02:09:59;;;;;;;8.15;7.40;;;;;;;8.02;76.43;99280.72;10584540;28;20024;-71
2021/05/15 02:15:00;;;;;;;8.35;7.68;;;;;;;7.68;77.51;99283.59;10586295;28;20031;-71
2021/05/15 02:20:00;;;;;;;9.18;8.60;;;;;;;7.64;77.77;99278.50;10584524;28;20392;-71
2021/05/15 02:25:04;;;;;;;8.73;8.13;;;;;;;7.50;78.17;99271.94;10586269;28;20031;-71
2021/05/15 02:30:05;;;;;;;8.40;6.60;;;;;;;7.99;76.22;99272.13;10585142;28;20055;-71
2021/05/15 02:35:07;;;;;;;7.95;7.40;;;;;;;7.84;76.55;99265.63;10587156;28;20036;-71
2021/05/15 02:40:09;;;;;;;7.55;7.05;;;;;;;7.54;77.57;99265.72;10567399;28;20115;-71
2021/05/15 02:45:12;;;;;;;9.55;8.95;;;;;;;7.28;78.39;99263.91;10584642;28;20039;-72
2021/05/15 02:50:16;;;;;;;8.70;8.18;;;;;;;7.19;78.37;99268.56;10584538;28;20548;-72
2021/05/15 02:55:20;;;;;;;10.77;10.07;;;;;;;7.15;78.75;99266.94;10584705;28;20046;-72
2021/05/15 03:00:26;;;;;;;9.32;8.75;;;;;;;7.12;78.71;99256.56;10568054;28;20093;-72
2021/05/15 03:05:28;;;;;;;9.13;8.43;;;;;;;7.06;78.76;99268.06;10584535;28;20027;-72
2021/05/15 03:10:29;;;;;;;9.50;8.90;;;;;;;7.03;78.83;99271.63;10583989;28;20043;-72
2021/05/15 03:15:30;;;;;;;9.63;8.93;;;;;;;6.96;79.04;99261.41;10564512;28;20535;-72
2021/05/15 03:20:30;;;;;;;10.57;9.88;;;;;;;6.96;78.98;99259.66;10564723;28;20076;-76
2021/05/15 03:25:31;;;;;;;10.68;9.88;;;;;;;6.98;79.25;99264.81;10564496;28;20400;-71
2021/05/15 03:30:32;;;;;;;8.68;8.18;;;;;;;7.39;76.16;99257.47;10584789;28;20369;-71
2021/05/15 03:35:32;;;;;;;9.52;8.80;;;;;;;7.17;76.50;99268.63;10590036;28;20524;-71
2021/05/15 03:40:33;;;;;;;11.07;10.27;;;;;;;6.97;77.42;99273.56;10571994;28;20039;-71
2021/05/15 03:45:33;;;;;;;10.60;9.90;;;;;;;6.78;78.61;99275.88;10590606;28;20039;-71
2021/05/15 03:50:34;;;;;;;12.23;11.27;;;;;;;6.65;79.33;99264.91;10571424;28;20038;-71
2021/05/15 03:55:34;;;;;;;12.88;11.85;;;;;;;6.70;79.63;99273.47;10588139;28;20590;-71
2021/05/15 04:00:35;;;;;;;12.68;11.77;;;;;;;6.76;79.63;99262.84;10588199;28;20036;-71
2021/05/15 04:05:36;;;;;;;11.95;11.15;;;;;;;7.02;79.56;99272.53;10571030;28;20043;-71
2021/05/15 04:10:37;;;;;;;13.60;12.70;;;;;;;7.12;79.42;99275.72;10588900;28;20477;-71
2021/05/15 04:15:41;;;;;;;13.85;12.95;;;;;;;7.49;79.10;99279.84;10570081;28;20070;-71
2021/05/15 04:20:44;;;;;;;11.23;10.52;;;;;;;7.85;77.43;99283.03;10569883;28;20031;-70
2021/05/15 04:25:45;;;;;;;11.43;10.63;;;;;;;7.86;78.17;99286.50;10588998;28;20358;-70
2021/05/15 04:30:47;;;;;;;11.20;10.50;;;;;;;7.94;78.26;99279.28;10587066;28;20023;-70
2021/05/15 04:35:48;;;;;;;12.00;11.20;;;;;;;7.99;77.82;99286.06;10587927;28;20031;-70
2021/05/15 04:40:50;;;;;;;12.85;12.05;;;;;;;7.94;78.76;99287.13;10587901;28;20023;-70
2021/05/15 04:45:52;;;;;;;11.98;10.85;;;;;;;7.94;78.97;99287.13;10570165;28;20038;-70
2021/05/15 04:50:52;;;;;;;12.48;11.68;;;;;;;8.32;78.54;99286.69;10587396;28;20055;-70
2021/05/15 04:55:53;;;;;;;11.57;10.88;;;;;;;8.74;77.24;99285.25;10586711;28;20126;-71
2021/05/15 05:00:54;;;;;;;10.88;10.15;;;;;;;8.99;76.12;99290.47;10587439;28;20045;-71
2021/05/15 05:05:54;;;;;;;11.32;10.57;;;;;;;9.20;76.61;99299.25;10587488;28;20044;-70
2021/05/15 05:10:56;;;;;;;9.32;8.80;;;;;;;9.43;75.73;99296.63;10576178;28;20023;-70
2021/05/15 05:15:57;;;;;;;10.15;9.32;;;;;;;9.77;74.31;99293.50;10593591;28;20036;-70
2021/05/15 05:20:58;;;;;;;7.63;7.13;;;;;;;9.89;74.41;99294.81;10569155;28;20032;-70
2021/05/15 05:25:58;;;;;;;8.55;8.05;;;;;;;9.88;74.01;99294.88;10569581;28;20073;-70
2021/05/15 05:30:59;;;;;;;8.70;8.10;;;;;;;9.86;74.55;99297.53;10588385;28;20388;-70
2021/05/15 05:36:00;;;;;;;8.07;7.57;;;;;;;10.30;74.03;99295.72;10587006;28;20492;-70
2021/05/15 05:41:00;;;;;;;8.15;7.55;;;;;;;10.64;73.13;99298.69;10586404;28;20031;-70
2021/05/15 05:46:01;;;;;;;6.32;5.85;;;;;;;11.30;71.21;99289.53;10586169;28;20111;-70
2021/05/15 05:51:01;;;;;;;6.53;5.93;;;;;;;11.89;68.51;99294.69;10585529;28;20065;-71
2021/05/15 05:56:03;;;;;;;6.88;5.07;;;;;;;12.34;67.50;99288.91;10592346;28;20031;-70
2021/05/15 06:01:04;;;;;;;4.50;4.15;;;;;;;13.24;65.45;99286.81;10566813;28;20035;-70
2021/05/15 06:06:04;;;;;;;3.92;3.63;;;;;;;13.68;62.40;99293.19;10566513;28;20058;-70
2021/05/15 06:11:06;;;;;;;3.53;2.88;;;;;;;14.55;60.72;99294.28;10566738;28;20032;-71
2021/05/15 06:16:06;;;;;;;1.27;0.57;;;;;;;14.83;54.93;99282.91;10598795;22;20058;-75
2021/05/15 06:21:07;;;;;;;1.40;0.70;;;;;;;15.25;54.70;99286.47;10570562;28;20235;-73
2021/05/15 06:26:09;;;;;;;0.82;0.60;;;;;;;15.85;53.84;99280.88;10588983;28;20035;-73
2021/05/15 06:31:10;;;;;;;1.85;0.68;;;;;;;16.32;52.36;99278.66;10588007;28;20076;-74
2021/05/15 06:36:11;;;;;;;1.63;0.45;;;;;;;16.59;51.85;99281.25;10588164;28;20138;-74
2021/05/15 06:41:11;;;;;;;1.08;0.50;;;;;;;16.76;52.92;99286.28;10587746;28;20028;-73
2021/05/15 06:46:12;;;;;;;1.55;0.50;;;;;;;16.84;50.90;99270.66;10588356;28;20504;-74
2021/05/15 06:51:12;;;;;;;0.40;0.40;;;;;;;16.92;51.79;99272.81;10568874;28;20031;-74
2021/05/15 06:56:13;;;;;;;2.08;0.40;;;;;;;17.00;50.63;99274.91;10568115;28;20056;-73
2021/05/15 07:01:13;;;;;;;2.30;0.50;;;;;;;17.09;50.81;99275.13;10584844;28;20031;-73
2021/05/15 07:06:14;;;;;;;0.80;0.45;;;;;;;16.79;49.37;99275.47;10588849;28;20042;-73
2021/05/15 07:11:14;;;;;;;3.30;0.50;;;;;;;16.40;50.57;99279.00;10592196;28;20031;-74
2021/05/15 07:16:15;;;;;;;1.27;0.40;;;;;;;16.52;50.74;99294.09;10592594;28;20028;-73
2021/05/15 07:21:15;;;;;;;0.30;0.30;;;;;;;16.62;49.02;99278.41;10590808;28;20039;-72
2021/05/15 07:26:16;;;;;;;0.55;0.30;;;;;;;16.60;50.52;99274.97;10572592;28;20118;-74
2021/05/15 07:31:16;;;;;;;2.25;0.40;;;;;;;16.60;49.88;99277.63;10592016;28;20038;-73
2021/05/15 07:36:17;;;;;;;1.67;0.50;;;;;;;16.53;50.23;99274.56;10591902;28;20111;-73
2021/05/15 07:41:18;;;;;;;1.58;0.45;;;;;;;16.89;48.89;99268.53;10593048;28;20039;-72
2021/05/15 07:46:18;;;;;;;1.15;0.40;;;;;;;16.95;48.42;99264.59;10591292;28;20031;-72
2021/05/15 07:51:22;;;;;;;1.65;0.47;;;;;;;17.33;48.97;99266.34;10590310;28;20027;-73
2021/05/15 07:56:23;;;;;;;1.38;0.43;;;;;;;17.50;47.95;99266.00;10589834;28;20503;-72
2021/05/15 08:01:23;;;;;;;0.93;0.30;;;;;;;17.44;47.69;99262.91;10570847;28;20039;-73
2021/05/15 08:06:24;;;;;;;1.25;0.40;;;;;;;17.64;47.21;99262.31;10571250;28;20149;-74
2021/05/15 08:11:25;;;;;;;0.75;0.30;;;;;;;17.72;46.43;99267.94;10570980;28;20039;-73
2021/05/15 08:16:26;;;;;;;0.98;0.40;;;;;;;17.73;47.16;99266.97;10588152;28;20515;-74
2021/05/15 08:21:27;;;;;;;0.93;0.40;;;;;;;17.63;44.99;99260.63;10571727;28;20038;-73
2021/05/15 08:26:28;;;;;;;1.50;0.52;;;;;;;17.57;45.54;99261.91;10589992;28;20111;-72
2021/05/15 08:31:28;;;;;;;0.73;0.38;;;;;;;17.60;45.97;99258.19;10587965;28;20027;-73
2021/05/15 08:36:29;;;;;;;0.90;0.38;;;;;;;17.93;46.52;99259.34;10588842;28;20027;-72
2021/05/15 08:41:31;;;;;;;0.43;0.30;;;;;;;18.47;44.52;99253.50;10588634;28;20034;-73
2021/05/15 08:46:32;;;;;;;0.47;0.30;;;;;;;18.54;43.70;99249.38;10587638;28;20523;-74
2021/05/15 08:51:34;;;;;;;1.55;0.40;;;;;;;18.20;44.39;99257.31;10586907;28;20055;-72
2021/05/15 08:56:35;;;;;;;0.93;0.50;;;;;;;17.87;44.54;99255.34;10587744;28;20092;-72
2021/05/15 09:01:35;;;;;;;1.00;0.22;;;;;;;17.68;45.22;99247.00;10586969;28;20141;-73
2021/05/15 09:06:40;;;;;;;0.63;0.30;;;;;;;18.11;45.22;99252.69;10586061;28;20040;-73
2021/05/15 09:11:42;;;;;;;0.80;0.22;;;;;;;17.77;44.76;99252.53;10587932;28;20373;-72
2021/05/15 09:16:47;;;;;;;0.88;0.38;;;;;;;17.56;46.36;99257.56;10551602;28;20084;-72
2021/05/15 09:21:59;;;;;;;0.65;0.43;;;;;;;16.84;48.90;99254.75;10568703;28;20036;-73
2021/05/15 09:27:06;;;;;;;1.95;0.45;;;;;;;16.57;50.13;99262.78;10586274;28;20063;-72
2021/05/15 09:32:09;;;;;;;1.00;0.30;;;;;;;16.26;51.06;99268.47;10585918;28;20047;-72
2021/05/15 09:37:11;;;;;;;2.30;0.50;;;;;;;16.18;51.32;99263.69;10586499;28;20497;-73
2021/05/15 09:42:13;;;;;;;2.80;0.70;;;;;;;16.17;52.32;99266.44;10587051;28;20467;-72
2021/05/15 09:47:18;;;;;;;2.92;0.55;;;;;;;16.07;50.16;99290.06;10587206;28;20047;-73
2021/05/15 09:52:31;;;;;;;3.15;0.30;;;;;;;14.96;53.86;99298.84;10585995;28;20061;-73
2021/05/15 09:57:33;;;;;;;0.75;0.50;;;;;;;14.27;55.75;99287.13;10586811;28;20549;-73
2021/05/15 10:02:35;;;;;;;0.47;0.45;;;;;;;14.28;55.85;99294.09;10585522;28;20446;-73
2021/05/15 10:07:38;;;;;;;0.50;0.30;;;;;;;14.94;55.38;99284.88;10548822;28;20052;-73
2021/05/15 10:12:40;;;;;;;1.77;0.50;;;;;;;15.45;53.35;99268.47;10585197;28;20032;-74
2021/05/15 10:17:42;;;;;;;1.30;0.55;;;;;;;15.54;56.43;99252.84;10583800;28;20043;-72
2021/05/15 10:22:45;;;;;;;0.45;0.40;;;;;;;16.96;52.66;99239.78;10565423;28;20560;-74
2021/05/15 10:27:46;;;;;;;0.40;0.30;;;;;;;18.20;48.93;99224.53;10584350;28;20070;-73
2021/05/15 10:32:53;;;;;;;1.20;0.30;;;;;;;18.66;48.81;99213.84;10584404;28;20059;-72
2021/05/15 10:38:08;;;;;;;0.90;0.22;;;;;;;19.65;45.25;99203.22;10565643;28;20075;-72
2021/05/15 10:43:10;;;;;;;0.63;0.40;;;;;;;18.83;45.35;99200.09;10591753;28;20457;-73
2021/05/15 10:48:22;;;;;;;1.02;0.30;;;;;;;18.33;47.27;99196.88;10574824;28;20039;-75
2021/05/15 10:53:26;;;;;;;0.70;0.30;;;;;;;17.94;50.74;99205.22;10591608;28;20067;-72
2021/05/15 10:58:46;;;;;;;1.48;0.50;;;;;;;17.27;54.20;99198.59;10591562;28;20123;-73
2021/05/15 11:03:48;;;;;;;1.48;0.50;;;;;;;16.49;56.78;99190.84;10590795;28;20039;-72
2021/05/15 11:09:04;;;;;;;1.15;0.55;;;;;;;17.08;55.78;99191.09;10572469;28;20051;-73
2021/05/15 11:14:39;;;;;;;0.35;0.20;;;;;;;17.36;54.70;99189.09;10590842;28;20040;-72
2021/05/15 11:20:04;;;;;;;1.17;0.40;;;;;;;17.48;52.88;99177.56;10590880;28;20063;-72
2021/05/15 11:25:15;;;;;;;1.20;0.38;;;;;;;17.53;52.72;99169.25;10589295;28;20050;-73
2021/05/15 11:30:20;;;;;;;2.92;0.80;;;;;;;16.48;56.90;99212.19;10588947;28;20089;-73
2021/05/15 11:35:22;;;;;;;1.30;0.45;;;;;;;15.21;62.21;99176.41;10589086;28;20086;-73
2021/05/15 11:40:24;;;;;;;0.40;0.30;;;;;;;15.68;59.63;99158.41;10589637;28;20036;-73
2021/05/15 11:45:26;;;;;;;0.40;0.20;;;;;;;16.59;61.15;99162.69;10588387;28;20485;-73
2021/05/15 11:50:28;;;;;;;1.38;0.40;;;;;;;17.04;60.20;99152.44;10589355;28;20039;-73
2021/05/15 11:55:32;;;;;;;0.80;0.40;;;;;;;17.75;57.81;99141.94;10588948;28;20067;-74
2021/05/15 12:00:33;;;;;;;0.38;0.38;;;;;;;18.28;52.42;99126.34;10571480;28;20092;-74
2021/05/15 12:05:36;;;;;;;0.40;0.30;;;;;;;17.87;52.66;99131.22;10571062;28;20047;-74
2021/05/15 12:10:40;;;;;;;1.10;0.50;;;;;;;17.44;55.35;99138.88;10587736;28;20039;-75
2021/05/15 12:15:48;;;;;;;1.90;0.35;;;;;;;16.04;56.04;99165.69;10600703;22;20496;-68
2021/05/15 12:20:51;;;;;;;1.45;0.40;;;;;;;14.94;57.61;99142.00;10587781;28;20089;-66
2021/05/15 12:26:02;;;;;;;0.73;0.28;;;;;;;14.97;60.03;99131.22;10587990;28;20118;-66
2021/05/15 12:31:03;;;;;;;1.42;0.40;;;;;;;15.16;59.08;99122.09;10569004;28;20038;-67
2021/05/15 12:36:10;;;;;;;0.30;0.30;;;;;;;15.76;59.24;99113.69;10570466;28;20044;-68
2021/05/15 12:41:13;;;;;;;0.50;0.32;;;;;;;16.37;55.52;99114.75;10587620;28;20557;-68
2021/05/15 12:46:18;;;;;;;0.85;0.20;;;;;;;16.37;56.49;99096.19;10589043;28;20118;-67
2021/05/15 12:51:34;;;;;;;0.20;0.10;;;;;;;16.59;52.12;99093.72;10587579;28;20040;-67
2021/05/15 12:56:36;;;;;;;0.30;0.20;;;;;;;16.73;52.31;99089.25;10567477;28;20492;-68
2021/05/15 13:01:38;;;;;;;0.50;0.40;;;;;;;16.90;52.53;99086.22;10586387;28;20067;-69
2021/05/15 13:06:41;;;;;;;1.02;0.40;;;;;;;17.12;50.17;99072.22;10586724;28;20046;-69
2021/05/15 13:11:43;;;;;;;0.17;0.17;;;;;;;17.12;52.89;99067.75;10551159;28;20043;-68
2021/05/15 13:16:45;;;;;;;0.57;0.25;;;;;;;17.22;49.51;99061.75;10567275;28;20054;-69
2021/05/15 13:21:47;;;;;;;3.17;0.47;;;;;;;16.96;49.54;99069.03;10585350;28;20119;-68
2021/05/15 13:26:49;;;;;;;0.80;0.40;;;;;;;16.92;49.57;99054.28;10567207;28;20047;-69
2021/05/15 13:31:52;;;;;;;0.95;0.40;;;;;;;17.16;48.47;99047.16;10549977;28;20390;-69
2021/05/15 13:36:55;;;;;;;0.30;0.30;;;;;;;17.36;46.62;99051.81;10584596;28;20044;-68
2021/05/15 13:41:58;;;;;;;1.05;0.60;;;;;;;17.20;47.38;99037.16;10565780;28;20467;-70
2021/05/15 13:47:03;;;;;;;0.60;0.40;;;;;;;17.31;49.10;99027.41;10585089;28;20076;-69
2021/05/15 13:52:06;;;;;;;0.60;0.30;;;;;;;17.63;48.07;99014.31;10565795;28;20043;-68
2021/05/15 13:57:07;;;;;;;0.40;0.40;;;;;;;17.73;49.39;99002.97;10565477;28;20134;-69
2021/05/15 14:02:10;;;;;;;0.43;0.40;;;;;;;18.04;46.93;99001.47;10583434;28;20093;-68
2021/05/15 14:07:11;;;;;;;0.70;0.38;;;;;;;18.15;45.72;98986.34;10582555;28;20055;-68
2021/05/15 14:12:13;;;;;;;0.32;0.30;;;;;;;18.20;48.41;98988.66;10583055;28;20462;-67
2021/05/15 14:17:16;;;;;;;0.60;0.40;;;;;;;18.31;45.99;98977.97;10581764;28;20048;-67
2021/05/15 14:22:18;;;;;;;0.80;0.40;;;;;;;18.39;45.10;98964.06;10564142;28;20055;-67
2021/05/15 14:27:21;;;;;;;1.20;0.30;;;;;;;18.28;45.79;98966.72;10582290;28;20073;-68
2021/05/15 14:32:27;;;;;;;1.70;0.43;;;;;;;18.52;44.74;98967.41;10582282;28;20046;-68
2021/05/15 14:37:29;;;;;;;0.50;0.43;;;;;;;18.50;46.59;98956.03;10582014;28;20048;-68
2021/05/15 14:42:31;;;;;;;1.33;0.38;;;;;;;18.77;43.78;98952.13;10581605;28;20115;-68
2021/05/15 14:47:33;;;;;;;4.03;0.30;;;;;;;18.87;44.08;98943.25;10563066;28;20118;-67
2021/05/15 14:52:35;;;;;;;0.28;0.28;;;;;;;18.96;44.65;98938.97;10563617;28;20067;-67
2021/05/15 14:57:37;;;;;;;0.40;0.20;;;;;;;18.94;43.81;98929.41;10581208;28;20062;-68
2021/05/15 15:02:39;;;;;;;1.20;0.20;;;;;;;18.61;44.87;98918.75;10562932;28;20084;-68
2021/05/15 15:07:41;;;;;;;0.45;0.40;;;;;;;18.67;43.00;98925.38;10580953;28;20135;-67
2021/05/15 15:12:43;;;;;;;0.70;0.30;;;;;;;18.66;43.33;98927.22;10581939;28;20039;-68
2021/05/15 15:17:44;;;;;;;1.27;0.10;;;;;;;18.49;42.19;98927.75;10562479;28;20040;-68
2021/05/15 15:22:46;;;;;;;0.55;0.13;;;;;;;18.51;38.88;98917.00;10580672;28;20039;-68
2021/05/15 15:27:48;;;;;;;0.75;0.20;;;;;;;18.20;41.71;98916.00;10585175;28;20047;-68
2021/05/15 15:32:50;;;;;;;0.10;0.10;;;;;;;17.98;40.39;98915.06;10588457;28;20039;-68
2021/05/15 15:37:52;;;;;;;0.63;0.10;;;;;;;17.71;41.11;98919.84;10588739;28;20043;-68
2021/05/15 15:42:54;;;;;;;2.53;0.35;;;;;;;17.01;45.38;98944.75;10588363;28;20527;-68
2021/05/15 15:47:56;;;;;;;1.20;0.22;;;;;;;16.44;48.21;98942.78;10588329;28;20471;-69
2021/05/15 15:52:57;;;;;;;0.95;0.30;;;;;;;16.02;49.66;98940.47;10587552;28;20059;-69
2021/05/15 15:57:59;;;;;;;0.63;0.40;;;;;;;15.69;51.01;98933.13;10588619;28;20390;-69
2021/05/15 16:03:04;;;;;;;1.20;0.63;;;;;;;15.50;50.50;98933.53;10587869;28;20036;-69
2021/05/15 16:08:06;;;;;;;1.77;0.30;;;;;;;15.28;50.46;98930.66;10586777;28;20519;-68
2021/05/15 16:13:08;;;;;;;0.40;0.40;;;;;;;15.30;51.26;98924.28;10587158;28;20128;-68
2021/05/15 16:18:10;;;;;;;0.70;0.47;;;;;;;15.35;50.68;98924.81;10586287;28;20467;-68
2021/05/15 16:23:11;;;;;;;0.70;0.50;;;;;;;15.44;49.96;98922.50;10586739;28;20032;-68
2021/05/15 16:28:13;;;;;;;0.75;0.30;;;;;;;15.59;50.82;98916.16;10586176;28;20036;-68
2021/05/15 16:33:15;;;;;;;0.70;0.32;;;;;;;15.69;49.37;98926.97;10587656;28;20059;-69
2021/05/15 16:38:19;;;;;;;0.52;0.28;;;;;;;15.70;49.53;98921.56;10585698;28;20110;-68
2021/05/15 16:43:22;;;;;;;0.50;0.30;;;;;;;15.72;49.30;98924.97;10586150;28;20043;-69
2021/05/15 16:48:39;;;;;;;0.30;0.30;;;;;;;15.65;49.57;98910.44;10585516;28;20043;-67
2021/05/15 16:53:45;;;;;;;1.13;0.35;;;;;;;15.58;49.50;98909.13;10586771;28;20035;-68
2021/05/15 16:58:47;;;;;;;1.30;0.43;;;;;;;15.51;49.79;98905.25;10567091;28;20048;-67
2021/05/15 17:03:50;;;;;;;0.30;0.30;;;;;;;15.52;50.03;98898.97;10584945;28;20493;-69
2021/05/15 17:08:51;;;;;;;1.15;0.30;;;;;;;15.41;50.37;98901.53;10585467;28;20089;-68
2021/05/15 17:13:56;;;;;;;1.23;0.40;;;;;;;15.61;50.49;98898.31;10584748;28;20430;-68
2021/05/15 17:18:58;;;;;;;0.82;0.50;;;;;;;15.78;49.35;98903.31;10584165;28;20039;-67
2021/05/15 17:24:02;;;;;;;2.17;0.50;;;;;;;15.74;50.18;98899.19;10566043;28;20051;-68
2021/05/15 17:29:05;;;;;;;0.65;0.40;;;;;;;15.45;51.53;98897.69;10583742;28;20063;-68
2021/05/15 17:34:07;;;;;;;0.70;0.70;;;;;;;15.57;51.98;98908.28;10583258;28;20031;-68
2021/05/15 17:39:11;;;;;;;0.80;0.60;;;;;;;15.63;51.41;98905.22;10583493;28;20100;-68
2021/05/15 17:44:13;;;;;;;2.15;0.63;;;;;;;15.73;51.28;98907.25;10583507;28;20036;-70
2021/05/15 17:49:15;;;;;;;1.90;0.80;;;;;;;15.66;50.62;98896.22;10583011;28;20093;-68
2021/05/15 17:54:16;;;;;;;1.23;0.70;;;;;;;15.33;52.05;98902.06;10583451;28;20039;-68
2021/05/15 17:59:18;;;;;;;2.08;0.60;;;;;;;15.11;52.73;98905.34;10564507;28;20086;-68
2021/05/15 18:04:20;;;;;;;0.73;0.60;;;;;;;14.98;53.67;98905.31;10582824;28;20466;-68
2021/05/15 18:09:22;;;;;;;1.27;0.70;;;;;;;14.70;53.18;98900.19;10564169;28;20497;-68
2021/05/15 18:14:24;;;;;;;0.80;0.80;;;;;;;14.51;53.71;98898.75;10576297;22;20073;-72
2021/05/15 18:19:26;;;;;;;1.00;0.52;;;;;;;14.36;54.41;98892.66;10587123;28;20542;-72
2021/05/15 18:24:28;;;;;;;0.98;0.88;;;;;;;14.18;54.73;98893.00;10587606;28;20558;-72
2021/05/15 18:29:30;;;;;;;1.20;1.10;;;;;;;14.15;55.67;98888.75;10587937;28;20097;-73
2021/05/15 18:34:32;;;;;;;1.17;1.08;;;;;;;14.44;57.00;98889.53;10570792;28;20044;-73
2021/05/15 18:39:34;;;;;;;1.13;0.82;;;;;;;14.31;58.75;98888.63;10587641;28;20039;-73
2021/05/15 18:44:36;;;;;;;1.17;0.90;;;;;;;14.11;59.59;98911.88;10586806;28;20047;-73
2021/05/15 18:49:38;;;;;;;2.35;1.08;;;;;;;14.02;60.90;98912.47;10589125;28;20047;-73
2021/05/15 18:54:40;;;;;;;3.13;1.75;;;;;;;13.76;61.88;98921.19;10568830;28;20127;-72
2021/05/15 18:59:42;;;;;;;1.63;1.20;;;;;;;13.68;63.22;98932.25;10592183;28;20052;-73
2021/05/15 19:04:44;;;;;;;2.95;2.05;;;;;;;13.62;63.76;98917.63;10585142;28;20062;-72
2021/05/15 19:09:46;;;;;;;2.10;1.80;;;;;;;13.54;64.26;98916.41;10598407;28;20051;-73
2021/05/15 19:14:50;;;;;;;2.22;1.40;;;;;;;13.30;63.89;98911.69;10581735;28;20471;-74
2021/05/15 19:19:52;;;;;;;1.20;1.02;;;;;;;13.30;60.21;98902.94;10599927;28;20067;-73
2021/05/15 19:24:54;;;;;;;1.30;0.90;;;;;;;13.25;60.59;98907.63;10581923;28;20052;-72
2021/05/15 19:29:56;;;;;;;0.60;0.60;;;;;;;13.45;57.16;98916.97;10582845;28;20497;-72
2021/05/15 19:34:58;;;;;;;0.63;0.60;;;;;;;13.44;57.43;98931.13;10582825;28;20588;-72
2021/05/15 19:40:01;;;;;;;1.42;0.50;;;;;;;13.51;57.87;98941.22;10590986;28;20043;-72
2021/05/15 19:45:05;;;;;;;0.77;0.65;;;;;;;13.10;58.80;98941.91;10594179;28;20092;-73
2021/05/15 19:50:09;;;;;;;0.90;0.70;;;;;;;13.27;58.81;98948.81;10595199;28;20047;-73
2021/05/15 19:55:12;;;;;;;1.90;0.90;;;;;;;13.01;59.43;98945.06;10613986;28;20034;-73
2021/05/15 20:00:18;;;;;;;1.33;0.90;;;;;;;12.87;59.65;98945.88;10590586;28;20571;-72
2021/05/15 20:05:20;;;;;;;1.38;1.02;;;;;;;13.21;57.94;98946.53;10597206;28;20069;-74
2021/05/15 20:10:23;;;;;;;1.20;0.90;;;;;;;13.19;57.57;98956.31;10592995;28;20063;-73
2021/05/15 20:15:30;;;;;;;0.70;0.70;;;;;;;12.97;58.96;98953.25;10576669;28;20047;-74
2021/05/15 20:20:41;;;;;;;0.60;0.60;;;;;;;12.91;60.29;98957.09;10591852;28;20043;-72
2021/05/15 20:25:45;;;;;;;0.70;0.70;;;;;;;12.75;60.34;98938.69;10573430;28;20066;-72
2021/05/15 20:30:48;;;;;;;0.68;0.50;;;;;;;12.88;57.95;98941.44;10573820;28;20055;-71
2021/05/15 20:35:50;;;;;;;0.63;0.50;;;;;;;13.02;57.02;98933.59;10611109;28;20107;-72
2021/05/15 20:40:52;;;;;;;0.50;0.43;;;;;;;12.69;58.93;98927.63;10592641;28;20075;-73
2021/05/15 20:45:55;;;;;;;0.55;0.50;;;;;;;12.96;58.88;98933.09;10574612;28;20078;-73
2021/05/15 20:50:57;;;;;;;0.93;0.50;;;;;;;12.19;63.47;98931.38;10578096;28;20047;-72
2021/05/15 20:55:59;;;;;;;1.60;0.40;;;;;;;11.97;66.41;98934.34;10594352;28;20071;-72
2021/05/15 21:01:03;;;;;;;0.65;0.60;;;;;;;12.48;63.40;98932.34;10575877;28;20065;-73
2021/05/15 21:06:08;;;;;;;1.38;0.70;;;;;;;12.51;65.75;98929.53;10610831;28;20050;-73
2021/05/15 21:11:10;;;;;;;1.08;0.47;;;;;;;12.15;67.40;98935.97;10593481;28;20051;-72
2021/05/15 21:16:19;;;;;;;3.33;0.50;;;;;;;12.11;66.34;98923.88;10579371;28;20073;-72
2021/05/15 21:21:21;;;;;;;0.60;0.45;;;;;;;11.88;66.67;98927.81;10591286;28;20043;-72
2021/05/15 21:26:22;;;;;;;0.68;0.57;;;;;;;11.82;68.11;98925.44;10589973;28;20381;-72
2021/05/15 21:31:24;;;;;;;1.05;0.60;;;;;;;11.70;68.96;98932.25;10571943;28;20052;-71
2021/05/15 21:36:26;;;;;;;0.68;0.65;;;;;;;11.36;71.41;98920.03;10590321;28;20040;-72
2021/05/15 21:41:28;;;;;;;1.15;0.68;;;;;;;11.09;71.84;98902.13;10588815;28;20047;-71
2021/05/15 21:46:31;;;;;;;0.88;0.60;;;;;;;10.98;72.17;98901.84;10569637;28;20052;-72
2021/05/15 21:51:32;;;;;;;1.17;0.47;;;;;;;11.40;71.00;98897.88;10585479;28;20078;-71
2021/05/15 21:56:34;;;;;;;1.10;0.98;;;;;;;11.45;71.01;98893.22;10585637;28;20574;-71
2021/05/15 22:01:37;;;;;;;2.60;0.90;;;;;;;11.17;71.98;98895.63;10567134;28;20039;-71
2021/05/15 22:06:39;;;;;;;1.52;0.85;;;;;;;10.94;73.13;98891.56;10586286;28;20237;-71
2021/05/15 22:11:40;;;;;;;2.00;0.70;;;;;;;10.91;73.74;98876.78;10585268;28;20055;-71
2021/05/15 22:16:42;;;;;;;0.90;0.60;;;;;;;11.05;73.46;98878.69;10584850;28;20044;-71
2021/05/15 22:21:44;;;;;;;1.45;0.70;;;;;;;10.79;74.35;98877.41;10584753;28;20043;-71
2021/05/15 22:26:50;;;;;;;1.40;0.85;;;;;;;10.71;74.78;98877.78;10584092;28;20043;-70
2021/05/15 22:31:51;;;;;;;0.98;0.80;;;;;;;11.11;73.37;98883.63;10583685;28;20039;-71
2021/05/15 22:36:53;;;;;;;1.15;0.85;;;;;;;10.99;73.84;98879.88;10583613;28;20135;-72
2021/05/15 22:41:56;;;;;;;1.00;0.82;;;;;;;11.06;73.29;98868.09;10584163;28;20542;-70
2021/05/15 22:46:58;;;;;;;0.95;0.80;;;;;;;10.94;73.64;98871.38;10565145;28;20150;-71
2021/05/15 22:52:01;;;;;;;1.20;1.10;;;;;;;10.50;75.27;98876.28;10565978;28;20086;-71
2021/05/15 22:57:07;;;;;;;1.75;1.10;;;;;;;10.60;75.18;98882.75;10565607;28;20054;-71
2021/05/15 23:02:10;;;;;;;1.20;1.10;;;;;;;10.37;75.90;98875.19;10584417;28;20044;-71
2021/05/15 23:07:17;;;;;;;1.80;1.52;;;;;;;10.13;76.56;98871.91;10583676;28;20123;-71
2021/05/15 23:12:22;;;;;;;;;;;;;;;10.27;75.84;98874.75;10567019;28;20077;-70
2021/05/15 23:17:24;;;;;;;3.85;3.38;;;;;;;10.03;76.53;98869.75;10583464;28;19920;-71
2021/05/15 23:22:26;;;;;;;1.75;1.23;;;;;;;10.12;76.30;98865.81;10584460;28;20355;-70
2021/05/15 23:27:27;;;;;;;1.20;1.00;;;;;;;9.91;77.10;98853.72;10584938;28;20058;-71